aviador You're here:

LFKF Decoded Metar

FIGARI in CORSE ISL.
Report Time2017-09-25 04:00:00
UTC Time2017-09-25 04:27:12
Flight Rules mvfr MVFR
Wind020° at 03 kt
W.Decomp.*RWY 05: 2.6 kt HW 1.5 kt LCW
W.Rank020° ranks 16
Current wind is above 020° avg. (2.7)
Visibility9999 m
Phenomena:N/A
Clouds:Overcast 027 Hf
Expected CloudBase > 400 ft AGL from Temp-Dew spread
Ceiling2,700 ft
Temp14°C (ISA -1)
Dew Point13°C (94% RH)
AAT13.9°C
QNH1017 hPa
Density Alt39 ft
Elevation75 ft
Report Wrong Elevation
Raw Report
LFKF 250400Z AUTO 02003KT 9999 OVC027 14/13 Q1017 NOSIG=

Extra information for LFKF:More info

Metar Taf Metar & Taf Last 4 Metars F.Rules Stats Wind Profile Meteogram Temp Stats Airport Information Weather charts Add Link Nearby VenuesMetar ALERT Operation Metar Decoded Social comments